Time;durP1;ratioP1;P1;durP2;ratioP2;P2;SDS_P1;SDS_P2;PMS_P1;PMS_P2;Temp;Humidity;BMP_temperature;BMP_pressure;BME280_temperature;BME280_humidity;BME280_pressure;Samples;Min_cycle;Max_cycle;Signal;HPM_P1;HPM_P2
2023/08/03 00:00:35;;;;;;;1.55;1.00;;;24.60;55.30;;;;;;5077913;28;20020;-70
2023/08/03 00:03:00;;;;;;;1.33;1.00;;;24.60;55.30;;;;;;5078186;28;20020;-71
2023/08/03 00:05:26;;;;;;;1.33;1.10;;;24.60;55.30;;;;;;5077461;28;20035;-70
2023/08/03 00:07:52;;;;;;;1.50;1.00;;;24.60;55.30;;;;;;5078655;28;20034;-70
2023/08/03 00:10:20;;;;;;;0.90;0.88;;;24.60;55.30;;;;;;5080397;28;20849;-68
2023/08/03 00:12:47;;;;;;;1.15;0.95;;;24.60;55.20;;;;;;5080500;28;20027;-69
2023/08/03 00:15:14;;;;;;;1.23;1.00;;;24.60;55.20;;;;;;5076194;28;20034;-69
2023/08/03 00:17:40;;;;;;;1.52;1.00;;;24.60;55.30;;;;;;5078474;28;20111;-69
2023/08/03 00:20:06;;;;;;;1.55;1.00;;;24.50;55.20;;;;;;5078661;28;20035;-69
2023/08/03 00:22:34;;;;;;;1.38;0.90;;;24.50;55.20;;;;;;5062134;28;20024;-70
2023/08/03 00:25:00;;;;;;;1.15;1.00;;;24.60;55.20;;;;;;5077994;28;20503;-68
2023/08/03 00:27:27;;;;;;;1.40;1.10;;;24.60;55.30;;;;;;5079629;28;20479;-68
2023/08/03 00:29:52;;;;;;;1.20;1.00;;;24.50;55.20;;;;;;5076584;28;20032;-68
2023/08/03 00:32:18;;;;;;;1.20;0.90;;;24.50;55.20;;;;;;5079345;28;20031;-68
2023/08/03 00:34:44;;;;;;;1.17;1.00;;;24.50;55.20;;;;;;5077071;28;20033;-69
2023/08/03 00:37:13;;;;;;;1.45;1.00;;;24.50;55.20;;;;;;5080219;28;20031;-69
2023/08/03 00:39:39;;;;;;;1.17;1.00;;;24.50;55.20;;;;;;5079880;28;20028;-71
2023/08/03 00:42:05;;;;;;;1.23;1.00;;;24.50;55.20;;;;;;5076871;28;20032;-68
2023/08/03 00:44:31;;;;;;;1.35;1.00;;;24.50;55.20;;;;;;5076172;28;20047;-69
2023/08/03 00:46:57;;;;;;;1.05;0.90;;;24.50;55.20;;;;;;5078658;28;20039;-66
2023/08/03 00:49:27;;;;;;;1.40;0.90;;;24.50;55.20;;;;;;5079276;28;20028;-66
2023/08/03 00:51:55;;;;;;;0.88;0.80;;;24.50;55.20;;;;;;5079449;28;20074;-65
2023/08/03 00:54:20;;;;;;;0.98;0.80;;;24.50;55.10;;;;;;5060873;28;20036;-67
2023/08/03 00:56:46;;;;;;;1.23;1.00;;;24.50;55.10;;;;;;5076937;28;20082;-64
2023/08/03 00:59:12;;;;;;;1.33;0.88;;;24.50;55.10;;;;;;5080208;28;20031;-64
2023/08/03 01:01:38;;;;;;;1.55;1.00;;;24.50;55.20;;;;;;5081019;28;20032;-66
2023/08/03 01:04:04;;;;;;;1.35;1.00;;;24.50;55.20;;;;;;5079041;28;20024;-66
2023/08/03 01:06:29;;;;;;;1.30;0.90;;;24.50;55.10;;;;;;5078702;28;20051;-65
2023/08/03 01:08:57;;;;;;;1.30;1.00;;;24.50;55.10;;;;;;5079448;28;20791;-65
2023/08/03 01:11:23;;;;;;;1.02;0.80;;;24.50;55.10;;;;;;5080716;28;20035;-65
2023/08/03 01:13:49;;;;;;;1.42;0.98;;;24.50;55.10;;;;;;5080075;28;20492;-66
2023/08/03 01:16:15;;;;;;;0.88;0.70;;;24.50;55.10;;;;;;5081908;28;20119;-65
2023/08/03 01:18:42;;;;;;;0.90;0.80;;;24.50;55.10;;;;;;5062444;28;20029;-65
2023/08/03 01:21:09;;;;;;;1.35;1.00;;;24.50;55.10;;;;;;5079326;28;20144;-66
2023/08/03 01:23:35;;;;;;;1.13;0.88;;;24.50;55.10;;;;;;5066802;28;20037;-65
2023/08/03 01:26:01;;;;;;;1.40;0.93;;;24.50;55.10;;;;;;5079011;28;20403;-66
2023/08/03 01:28:26;;;;;;;1.40;1.00;;;24.50;55.00;;;;;;5079466;28;20020;-66
2023/08/03 01:30:52;;;;;;;1.30;0.90;;;24.50;55.00;;;;;;5061162;28;20414;-66
2023/08/03 01:33:17;;;;;;;1.10;0.88;;;24.50;55.10;;;;;;5081236;28;20028;-66
2023/08/03 01:35:44;;;;;;;1.40;0.90;;;24.50;55.00;;;;;;5079211;28;20012;-65
2023/08/03 01:38:13;;;;;;;1.23;0.90;;;24.50;55.00;;;;;;5080958;28;20794;-65
2023/08/03 01:40:38;;;;;;;1.17;0.90;;;24.50;55.10;;;;;;5079492;28;20661;-66
2023/08/03 01:43:04;;;;;;;1.67;1.00;;;24.50;55.00;;;;;;5079528;28;20035;-66
2023/08/03 01:45:30;;;;;;;1.92;1.00;;;24.50;55.00;;;;;;5081148;28;20028;-66
2023/08/03 01:47:55;;;;;;;0.90;0.80;;;24.50;55.00;;;;;;5078533;28;20103;-66
2023/08/03 01:50:21;;;;;;;0.90;0.75;;;24.50;55.00;;;;;;5064180;28;20050;-66
2023/08/03 01:52:48;;;;;;;1.30;0.85;;;24.50;55.00;;;;;;5077725;28;20036;-65
2023/08/03 01:55:14;;;;;;;1.00;0.80;;;24.40;55.00;;;;;;5038894;28;1145558;-65
2023/08/03 01:57:39;;;;;;;1.20;0.85;;;24.50;55.00;;;;;;5080305;28;20050;-65
2023/08/03 02:00:06;;;;;;;1.00;0.90;;;24.50;55.00;;;;;;5079341;28;20471;-66
2023/08/03 02:02:31;;;;;;;1.10;0.93;;;24.40;54.90;;;;;;5080317;28;20052;-64
2023/08/03 02:04:57;;;;;;;1.25;0.90;;;24.50;55.00;;;;;;5080028;28;20056;-64
2023/08/03 02:07:46;;;;;;;1.45;1.00;;;24.40;54.90;;;;;;5081022;28;20074;-69
2023/08/03 02:10:13;;;;;;;0.82;0.70;;;24.40;55.00;;;;;;5080143;28;20033;-70
2023/08/03 02:12:39;;;;;;;1.20;0.90;;;24.50;54.90;;;;;;5080554;28;20032;-69
2023/08/03 02:15:06;;;;;;;1.05;0.90;;;24.50;55.40;;;;;;5078174;28;20129;-69
2023/08/03 02:17:32;;;;;;;1.15;1.00;;;24.40;54.90;;;;;;5079886;28;20098;-69
2023/08/03 02:19:58;;;;;;;1.25;0.80;;;24.50;54.90;;;;;;5080109;28;20043;-69
2023/08/03 02:22:24;;;;;;;0.80;0.80;;;24.40;54.90;;;;;;5080983;28;20028;-69
2023/08/03 02:24:49;;;;;;;1.23;0.88;;;24.50;54.90;;;;;;5081718;28;20028;-70
2023/08/03 02:27:15;;;;;;;0.77;0.77;;;24.40;54.80;;;;;;5081617;28;20024;-70
2023/08/03 02:29:40;;;;;;;1.15;0.85;;;24.40;54.90;;;;;;5078550;28;20025;-70
2023/08/03 02:32:06;;;;;;;1.10;0.80;;;24.40;54.80;;;;;;5080015;28;20035;-69
2023/08/03 02:34:32;;;;;;;1.52;0.88;;;24.40;54.90;;;;;;5079403;28;20024;-70
2023/08/03 02:36:57;;;;;;;1.00;0.90;;;24.40;54.80;;;;;;5063642;28;20028;-69
2023/08/03 02:39:23;;;;;;;1.20;0.90;;;24.40;54.80;;;;;;5079900;28;20047;-70
2023/08/03 02:41:49;;;;;;;0.80;0.75;;;24.40;54.80;;;;;;5082170;28;20031;-69
2023/08/03 02:44:14;;;;;;;1.95;0.90;;;24.40;54.80;;;;;;5082099;28;20345;-69
2023/08/03 02:46:40;;;;;;;1.52;0.80;;;24.40;54.80;;;;;;5078218;28;20035;-69
2023/08/03 02:49:06;;;;;;;1.00;0.80;;;24.40;54.80;;;;;;5079437;28;20082;-70
2023/08/03 02:51:31;;;;;;;1.25;0.80;;;24.40;54.80;;;;;;5062194;28;20036;-69
2023/08/03 02:53:57;;;;;;;0.80;0.70;;;24.40;54.80;;;;;;5066266;28;20028;-69
2023/08/03 02:56:23;;;;;;;1.10;0.80;;;24.40;54.80;;;;;;5079116;28;20468;-70
2023/08/03 02:58:48;;;;;;;0.98;0.80;;;24.40;54.70;;;;;;5080862;28;20085;-70
2023/08/03 03:01:14;;;;;;;1.10;0.82;;;24.40;54.70;;;;;;5077921;28;20386;-69
2023/08/03 03:03:40;;;;;;;1.05;0.90;;;24.40;54.70;;;;;;5078388;28;20036;-70
2023/08/03 03:06:05;;;;;;;1.25;0.90;;;24.40;54.70;;;;;;5080020;28;20078;-70
2023/08/03 03:08:31;;;;;;;0.90;0.80;;;24.40;54.70;;;;;;5079126;28;20036;-69
2023/08/03 03:10:57;;;;;;;1.00;0.80;;;24.40;54.70;;;;;;5079701;28;20021;-70
2023/08/03 03:13:23;;;;;;;1.08;0.90;;;24.40;54.70;;;;;;5080685;28;20016;-70
2023/08/03 03:15:49;;;;;;;0.75;0.73;;;24.40;54.70;;;;;;5078940;28;20078;-66
2023/08/03 03:18:15;;;;;;;0.80;0.80;;;24.40;54.70;;;;;;5080632;28;20418;-66
2023/08/03 03:20:40;;;;;;;0.90;0.70;;;24.40;54.70;;;;;;5076109;28;20443;-66
2023/08/03 03:23:06;;;;;;;0.93;0.77;;;24.40;54.70;;;;;;5080094;28;20024;-65
2023/08/03 03:25:31;;;;;;;0.73;0.70;;;24.40;54.70;;;;;;5080577;28;20024;-64
2023/08/03 03:28:04;;;;;;;1.20;0.90;;;24.40;54.70;;;;;;5080989;28;20103;-65
2023/08/03 03:30:33;;;;;;;0.82;0.70;;;24.40;54.70;;;;;;5079175;28;20618;-65
2023/08/03 03:32:59;;;;;;;0.93;0.80;;;24.40;54.70;;;;;;5080462;28;20395;-65
2023/08/03 03:35:25;;;;;;;0.90;0.80;;;24.40;54.70;;;;;;5081169;28;20028;-66
2023/08/03 03:37:50;;;;;;;1.33;0.82;;;24.30;54.60;;;;;;5080275;28;20472;-65
2023/08/03 03:40:16;;;;;;;1.10;0.80;;;24.30;54.60;;;;;;5079949;28;20039;-65
2023/08/03 03:42:42;;;;;;;1.10;0.80;;;24.30;54.60;;;;;;5080347;28;20036;-65
2023/08/03 03:45:08;;;;;;;0.88;0.75;;;24.30;54.60;;;;;;5079445;28;20031;-64
2023/08/03 03:47:33;;;;;;;1.33;0.88;;;24.30;54.60;;;;;;5080175;28;20966;-64
2023/08/03 03:49:59;;;;;;;1.00;0.73;;;24.30;54.60;;;;;;5080766;28;20029;-65
2023/08/03 03:52:25;;;;;;;0.90;0.80;;;24.30;54.60;;;;;;5078744;28;20033;-65
2023/08/03 03:54:50;;;;;;;1.20;0.80;;;24.30;54.50;;;;;;5079243;28;20038;-65
2023/08/03 03:57:16;;;;;;;0.88;0.75;;;24.30;54.50;;;;;;5080338;28;20099;-64
2023/08/03 03:59:41;;;;;;;1.20;0.88;;;24.30;54.50;;;;;;5078427;28;20032;-64
2023/08/03 04:02:07;;;;;;;1.55;0.82;;;24.30;54.50;;;;;;5078519;28;20032;-63
2023/08/03 04:04:33;;;;;;;1.02;0.80;;;24.30;54.50;;;;;;5078041;28;20059;-64
2023/08/03 04:06:58;;;;;;;0.75;0.70;;;24.30;54.50;;;;;;5080589;28;20043;-64
2023/08/03 04:09:24;;;;;;;1.02;0.77;;;24.30;54.50;;;;;;5078507;28;20024;-63
2023/08/03 04:11:49;;;;;;;0.88;0.80;;;24.30;54.50;;;;;;5080513;28;20036;-62
2023/08/03 04:14:15;;;;;;;0.70;0.70;;;24.30;54.50;;;;;;5079593;28;20032;-64
2023/08/03 04:16:41;;;;;;;2.00;0.90;;;24.30;54.40;;;;;;5078526;28;20035;-70
2023/08/03 04:19:06;;;;;;;1.17;0.80;;;24.30;54.40;;;;;;5078848;28;20410;-68
2023/08/03 04:21:32;;;;;;;1.20;0.80;;;24.30;54.40;;;;;;5078001;28;20426;-67
2023/08/03 04:23:57;;;;;;;1.48;0.85;;;24.30;54.40;;;;;;5079506;28;20033;-68
2023/08/03 04:26:23;;;;;;;1.33;0.93;;;24.30;54.40;;;;;;5078683;28;20025;-66
2023/08/03 04:28:49;;;;;;;1.23;0.80;;;24.30;54.40;;;;;;5078678;28;20032;-65
2023/08/03 04:31:14;;;;;;;1.02;0.80;;;24.30;54.30;;;;;;5077181;28;20039;-64
2023/08/03 04:33:40;;;;;;;1.38;0.88;;;24.30;54.30;;;;;;5079115;28;20527;-65
2023/08/03 04:36:06;;;;;;;0.90;0.70;;;24.30;54.30;;;;;;5078762;28;20036;-64
2023/08/03 04:38:31;;;;;;;1.10;0.80;;;24.30;54.30;;;;;;5079048;28;20107;-64
2023/08/03 04:41:00;;;;;;;1.30;0.80;;;24.30;54.30;;;;;;5077238;28;20029;-63
2023/08/03 04:43:26;;;;;;;1.50;1.00;;;24.30;54.30;;;;;;5077646;28;20043;-64
2023/08/03 04:45:52;;;;;;;1.48;0.82;;;24.30;54.20;;;;;;5076247;28;20013;-63
2023/08/03 04:48:17;;;;;;;1.05;0.75;;;24.30;54.20;;;;;;5078694;28;20023;-65
2023/08/03 04:50:43;;;;;;;0.98;0.80;;;24.30;54.20;;;;;;5062537;28;20068;-65
2023/08/03 04:53:08;;;;;;;1.30;0.80;;;24.30;54.20;;;;;;5078675;28;20484;-67
2023/08/03 04:55:34;;;;;;;1.20;0.77;;;24.30;54.20;;;;;;5078942;28;20076;-65
2023/08/03 04:58:00;;;;;;;0.90;0.60;;;24.30;54.20;;;;;;5077011;28;20129;-66
2023/08/03 05:00:25;;;;;;;0.93;0.75;;;24.30;54.20;;;;;;5078898;28;20032;-63
2023/08/03 05:02:51;;;;;;;1.27;0.85;;;24.30;54.20;;;;;;5078396;28;20035;-64
2023/08/03 05:05:22;;;;;;;0.98;0.85;;;24.30;54.20;;;;;;5077002;28;20070;-64
2023/08/03 05:07:47;;;;;;;1.08;0.60;;;24.20;54.10;;;;;;5078430;28;20067;-63
2023/08/03 05:10:13;;;;;;;1.45;0.80;;;24.20;54.10;;;;;;5079502;28;20415;-63
2023/08/03 05:12:41;;;;;;;1.15;0.90;;;24.20;54.10;;;;;;5077276;28;20119;-65
2023/08/03 05:15:08;;;;;;;1.60;0.90;;;24.20;54.10;;;;;;5077274;28;20043;-63
2023/08/03 05:17:34;;;;;;;1.17;0.90;;;24.20;54.10;;;;;;5077808;28;20028;-64
2023/08/03 05:20:00;;;;;;;1.10;0.90;;;24.20;54.10;;;;;;5079107;28;20490;-64
2023/08/03 05:22:25;;;;;;;1.08;0.80;;;24.20;54.00;;;;;;5079067;28;20024;-64
2023/08/03 05:24:51;;;;;;;1.30;0.90;;;24.20;54.00;;;;;;5079132;28;20032;-65
2023/08/03 05:27:17;;;;;;;1.48;0.80;;;24.20;54.00;;;;;;5078026;28;20499;-68
2023/08/03 05:29:43;;;;;;;0.70;0.60;;;24.20;54.00;;;;;;5060883;28;20881;-68
2023/08/03 05:32:09;;;;;;;1.25;0.80;;;24.20;54.00;;;;;;5076530;28;20413;-67
2023/08/03 05:34:35;;;;;;;1.10;0.85;;;24.20;54.00;;;;;;5078693;28;20059;-70
2023/08/03 05:37:01;;;;;;;1.00;0.70;;;24.20;54.00;;;;;;5059538;28;20052;-66
2023/08/03 05:39:27;;;;;;;0.90;0.60;;;24.20;54.00;;;;;;5077104;28;20039;-64
2023/08/03 05:41:52;;;;;;;1.45;0.88;;;24.20;54.00;;;;;;5077659;28;20012;-64
2023/08/03 05:44:18;;;;;;;0.98;0.70;;;24.20;53.90;;;;;;5056307;28;20024;-63
2023/08/03 05:46:44;;;;;;;0.80;0.60;;;24.20;53.90;;;;;;5080017;28;20028;-63
2023/08/03 05:49:10;;;;;;;1.00;0.80;;;24.20;53.90;;;;;;5080640;28;20195;-64
2023/08/03 05:51:36;;;;;;;1.48;0.90;;;24.20;53.90;;;;;;5082027;28;20036;-63
2023/08/03 05:54:01;;;;;;;1.10;0.70;;;24.20;53.90;;;;;;5082005;28;20040;-63
2023/08/03 05:56:27;;;;;;;1.52;0.80;;;24.20;53.90;;;;;;5045962;28;20075;-63
2023/08/03 05:58:53;;;;;;;0.73;0.55;;;24.20;53.90;;;;;;5081573;28;20037;-64
2023/08/03 06:01:23;;;;;;;0.70;0.65;;;24.20;53.90;;;;;;5077506;28;20539;-63
2023/08/03 06:03:51;;;;;;;1.60;0.85;;;24.20;54.00;;;;;;5081549;28;20531;-65
2023/08/03 06:06:19;;;;;;;0.90;0.70;;;24.20;53.90;;;;;;5082103;28;20544;-64
2023/08/03 06:08:47;;;;;;;1.08;0.70;;;24.10;53.90;;;;;;5082298;28;20231;-65
2023/08/03 06:11:15;;;;;;;0.90;0.70;;;24.20;53.90;;;;;;5080485;28;20541;-65
2023/08/03 06:13:40;;;;;;;0.90;0.70;;;24.20;53.90;;;;;;5080900;28;20539;-63
2023/08/03 06:16:11;;;;;;;1.35;0.88;;;24.10;53.90;;;;;;5081783;28;20131;-63
2023/08/03 06:18:46;;;;;;;0.93;0.70;;;24.20;53.90;;;;;;5080306;28;20494;-64
2023/08/03 06:21:13;;;;;;;0.90;0.80;;;24.10;53.90;;;;;;5082318;28;20074;-63
2023/08/03 06:23:40;;;;;;;1.20;0.82;;;24.10;54.50;;;;;;5082557;28;20410;-64
2023/08/03 06:26:11;;;;;;;0.73;0.60;;;24.20;54.00;;;;;;5082924;28;20111;-63
2023/08/03 06:28:37;;;;;;;0.80;0.70;;;24.10;54.00;;;;;;5062915;28;20086;-66
2023/08/03 06:31:22;;;;;;;0.98;0.70;;;24.10;54.50;;;;;;5079612;28;20381;-66
2023/08/03 06:33:48;;;;;;;1.15;0.80;;;24.20;54.00;;;;;;5079980;28;20430;-63
2023/08/03 06:36:20;;;;;;;0.88;0.70;;;24.20;54.00;;;;;;5080077;28;20028;-70
2023/08/03 06:38:46;;;;;;;1.67;0.80;;;24.20;54.10;;;;;;5079054;28;20027;-70
2023/08/03 06:41:13;;;;;;;1.63;0.80;;;24.20;54.00;;;;;;5079089;28;20024;-70
2023/08/03 06:43:38;;;;;;;0.70;0.60;;;24.20;54.00;;;;;;5078859;28;20460;-70
2023/08/03 06:46:05;;;;;;;0.65;0.60;;;24.20;54.10;;;;;;5082320;28;20058;-68
2023/08/03 06:48:32;;;;;;;1.27;0.80;;;24.20;53.90;;;;;;5079841;28;20028;-69
2023/08/03 06:50:59;;;;;;;1.00;0.77;;;24.30;53.80;;;;;;5079052;28;20025;-69
2023/08/03 06:53:25;;;;;;;1.67;0.90;;;24.30;53.80;;;;;;5078765;28;20077;-69
2023/08/03 06:55:50;;;;;;;1.25;0.75;;;24.30;53.80;;;;;;5080489;28;20024;-69
2023/08/03 06:58:17;;;;;;;2.35;0.90;;;24.30;53.70;;;;;;5081870;28;20029;-69
2023/08/03 07:00:44;;;;;;;1.02;0.70;;;24.30;53.70;;;;;;5080138;28;20534;-69
2023/08/03 07:03:10;;;;;;;0.80;0.70;;;24.30;53.70;;;;;;5078986;28;20463;-68
2023/08/03 07:05:36;;;;;;;1.90;0.90;;;24.30;53.50;;;;;;5081110;28;20035;-69
2023/08/03 07:08:01;;;;;;;1.42;0.80;;;24.30;53.50;;;;;;5058730;28;20021;-68
2023/08/03 07:10:27;;;;;;;0.95;0.80;;;24.40;53.50;;;;;;5077624;28;20042;-68
2023/08/03 07:12:53;;;;;;;1.35;0.75;;;24.40;53.30;;;;;;5079882;28;20021;-68
2023/08/03 07:15:19;;;;;;;1.17;0.70;;;24.40;53.20;;;;;;5080378;28;20028;-68
2023/08/03 07:17:44;;;;;;;1.25;0.70;;;24.40;53.20;;;;;;5077370;28;20031;-68
2023/08/03 07:20:11;;;;;;;1.45;0.90;;;24.40;53.10;;;;;;5077839;28;20102;-68
2023/08/03 07:22:37;;;;;;;0.90;0.68;;;24.50;53.10;;;;;;5077336;28;20016;-68
2023/08/03 07:25:04;;;;;;;1.80;0.88;;;24.50;53.10;;;;;;5079678;28;20386;-68
2023/08/03 07:27:30;;;;;;;1.58;0.80;;;24.50;52.90;;;;;;5079059;28;20098;-68
2023/08/03 07:29:56;;;;;;;1.17;0.70;;;24.50;52.80;;;;;;5077990;28;20139;-68
2023/08/03 07:32:22;;;;;;;2.67;0.90;;;24.50;52.70;;;;;;5078764;28;20118;-68
2023/08/03 07:34:48;;;;;;;2.08;1.00;;;24.50;52.90;;;;;;5078699;28;20480;-68
2023/08/03 07:37:13;;;;;;;2.10;0.90;;;24.50;52.80;;;;;;5064941;28;20024;-68
2023/08/03 07:39:39;;;;;;;1.98;1.00;;;24.60;52.80;;;;;;5078814;28;20035;-68
2023/08/03 07:42:05;;;;;;;2.03;1.00;;;24.60;52.80;;;;;;5079092;28;20108;-68
2023/08/03 07:44:31;;;;;;;1.23;0.80;;;24.60;52.80;;;;;;5078965;28;20111;-68
2023/08/03 07:46:56;;;;;;;1.17;0.68;;;24.60;52.70;;;;;;5060075;28;20550;-69
2023/08/03 07:49:22;;;;;;;1.75;0.82;;;24.60;52.70;;;;;;5078913;28;20032;-69
2023/08/03 07:51:48;;;;;;;1.15;0.70;;;24.60;52.60;;;;;;5078713;28;20424;-69
2023/08/03 07:54:14;;;;;;;0.70;0.60;;;24.60;52.60;;;;;;5079063;28;20044;-69
2023/08/03 07:56:40;;;;;;;0.75;0.60;;;24.70;52.70;;;;;;5078902;28;20477;-65
2023/08/03 07:59:06;;;;;;;1.13;0.70;;;24.70;52.70;;;;;;5079593;28;20103;-66
2023/08/03 08:01:32;;;;;;;1.30;0.85;;;24.60;52.70;;;;;;5079845;28;20052;-66
2023/08/03 08:03:58;;;;;;;1.27;0.77;;;24.70;52.70;;;;;;5077794;28;20017;-68
2023/08/03 08:06:23;;;;;;;2.28;0.68;;;24.70;52.60;;;;;;5067472;28;20032;-65
2023/08/03 08:08:51;;;;;;;1.20;0.75;;;24.70;52.50;;;;;;5088750;28;20454;-65
2023/08/03 08:11:18;;;;;;;1.02;0.70;;;24.80;52.30;;;;;;5086673;28;20031;-65
2023/08/03 08:13:44;;;;;;;1.77;0.77;;;24.70;52.10;;;;;;5091513;28;20047;-64
2023/08/03 08:16:12;;;;;;;1.10;0.70;;;24.70;52.10;;;;;;5089446;28;20483;-65
2023/08/03 08:18:38;;;;;;;2.08;0.80;;;24.80;52.10;;;;;;5089783;28;20036;-64
2023/08/03 08:21:07;;;;;;;1.80;0.90;;;24.80;52.10;;;;;;5083167;28;20860;-65
2023/08/03 08:23:33;;;;;;;1.10;0.80;;;24.80;52.20;;;;;;5076689;28;20013;-65
2023/08/03 08:25:59;;;;;;;1.13;0.65;;;24.80;52.20;;;;;;5083508;28;20408;-65
2023/08/03 08:28:25;;;;;;;1.40;0.88;;;24.80;52.20;;;;;;5089044;28;20039;-65
2023/08/03 08:30:51;;;;;;;1.35;0.75;;;24.80;52.20;;;;;;5086437;28;20024;-65
2023/08/03 08:33:18;;;;;;;1.08;0.70;;;24.80;52.10;;;;;;5089310;28;20025;-65
2023/08/03 08:35:47;;;;;;;1.42;0.70;;;24.80;52.00;;;;;;5082339;28;20047;-65
2023/08/03 08:38:13;;;;;;;1.48;0.50;;;24.80;51.90;;;;;;5068356;28;20127;-65
2023/08/03 08:40:40;;;;;;;1.73;0.70;;;24.80;52.10;;;;;;5078820;28;20127;-66
2023/08/03 08:43:06;;;;;;;1.20;0.63;;;24.80;52.30;;;;;;5077343;28;20902;-65
2023/08/03 08:45:33;;;;;;;1.25;0.68;;;24.80;52.10;;;;;;5078176;28;20067;-65
2023/08/03 08:47:59;;;;;;;1.83;0.60;;;24.90;52.00;;;;;;5076407;28;20024;-66
2023/08/03 08:50:25;;;;;;;0.60;0.50;;;24.90;52.40;;;;;;5079400;28;20059;-66
2023/08/03 08:52:52;;;;;;;1.08;0.65;;;24.90;52.30;;;;;;5078042;28;20065;-66
2023/08/03 08:55:23;;;;;;;0.63;0.50;;;24.90;52.20;;;;;;5067323;28;20450;-68
2023/08/03 08:57:50;;;;;;;1.73;0.60;;;24.90;52.10;;;;;;5076453;28;20102;-65
2023/08/03 09:00:16;;;;;;;0.73;0.50;;;24.90;52.30;;;;;;5079708;28;20071;-65
2023/08/03 09:02:41;;;;;;;0.98;0.55;;;25.00;52.60;;;;;;5075739;28;20060;-66
2023/08/03 09:05:22;;;;;;;1.10;0.60;;;25.00;52.60;;;;;;5079367;28;20034;-67
2023/08/03 09:08:02;;;;;;;0.77;0.47;;;25.00;53.00;;;;;;5075330;28;20056;-66
2023/08/03 09:10:28;;;;;;;1.10;0.60;;;25.00;52.60;;;;;;5078283;28;20412;-66
2023/08/03 09:12:54;;;;;;;1.55;0.70;;;25.00;52.60;;;;;;5078667;28;20119;-65
2023/08/03 09:15:36;;;;;;;0.77;0.60;;;25.10;52.50;;;;;;5079446;28;20020;-65
2023/08/03 09:18:05;;;;;;;1.27;0.82;;;25.10;52.30;;;;;;5069477;28;20031;-70
2023/08/03 09:20:31;;;;;;;1.05;0.70;;;25.10;52.30;;;;;;5080697;28;20032;-69
2023/08/03 09:22:58;;;;;;;1.55;0.80;;;25.10;52.30;;;;;;5081720;28;20425;-70
2023/08/03 09:25:23;;;;;;;0.82;0.52;;;25.10;52.30;;;;;;5082077;28;20043;-69
2023/08/03 09:27:54;;;;;;;0.68;0.50;;;25.10;52.60;;;;;;5082903;28;20380;-69
2023/08/03 09:30:21;;;;;;;1.23;0.70;;;25.10;52.90;;;;;;5080985;28;20036;-69
2023/08/03 09:32:47;;;;;;;1.33;0.70;;;25.10;52.80;;;;;;5081545;28;20040;-69
2023/08/03 09:35:24;;;;;;;0.50;0.50;;;25.20;52.70;;;;;;5083535;28;20479;-69
2023/08/03 09:37:51;;;;;;;0.85;0.60;;;25.20;52.80;;;;;;5083251;28;20511;-70
2023/08/03 09:40:19;;;;;;;2.22;0.60;;;25.20;52.70;;;;;;5080791;28;20035;-70
2023/08/03 09:42:48;;;;;;;1.35;0.70;;;25.20;52.50;;;;;;5079634;28;20552;-69
2023/08/03 09:45:15;;;;;;;0.88;0.50;;;25.20;52.60;;;;;;5080149;28;20117;-69
2023/08/03 09:47:41;;;;;;;0.80;0.57;;;25.20;52.80;;;;;;5079533;28;20372;-68
2023/08/03 09:50:08;;;;;;;0.50;0.50;;;25.20;52.80;;;;;;5081949;28;20032;-69
2023/08/03 09:52:49;;;;;;;1.25;0.63;;;25.20;52.60;;;;;;5081102;28;20368;-69
2023/08/03 09:55:20;;;;;;;1.20;0.70;;;25.30;52.50;;;;;;5071574;28;20127;-69
2023/08/03 09:58:10;;;;;;;0.73;0.55;;;25.30;52.60;;;;;;5080690;28;20074;-69
2023/08/03 10:00:37;;;;;;;0.65;0.50;;;25.30;52.80;;;;;;5078644;28;20024;-69
2023/08/03 10:03:12;;;;;;;1.63;0.60;;;25.30;52.70;;;;;;5076916;28;20050;-69
2023/08/03 10:05:49;;;;;;;1.10;0.63;;;25.30;52.70;;;;;;5070010;28;20024;-69
2023/08/03 10:08:22;;;;;;;1.42;0.60;;;25.30;52.60;;;;;;5080889;28;20078;-69
2023/08/03 10:10:48;;;;;;;1.25;0.60;;;25.30;53.10;;;;;;5081817;28;20036;-69
2023/08/03 10:13:15;;;;;;;1.55;0.60;;;25.40;52.80;;;;;;5081947;28;20056;-70
2023/08/03 10:15:41;;;;;;;0.73;0.60;;;25.40;52.50;;;;;;5082347;28;20040;-69
2023/08/03 10:18:07;;;;;;;2.08;0.70;;;25.40;52.40;;;;;;5080445;28;20395;-70
2023/08/03 10:20:36;;;;;;;1.13;0.70;;;25.40;52.30;;;;;;5081482;28;20036;-69
2023/08/03 10:23:22;;;;;;;1.52;0.60;;;25.40;52.20;;;;;;5080065;28;20496;-70
2023/08/03 10:25:58;;;;;;;2.33;0.55;;;25.40;52.20;;;;;;5080541;28;20024;-69
2023/08/03 10:28:43;;;;;;;1.35;0.70;;;25.40;52.10;;;;;;5069719;28;20016;-69
2023/08/03 10:31:11;;;;;;;1.27;0.60;;;25.40;52.10;;;;;;5080138;28;20480;-68
2023/08/03 10:33:51;;;;;;;1.23;0.80;;;25.40;52.00;;;;;;5081299;28;20020;-70
2023/08/03 10:36:31;;;;;;;1.00;0.60;;;25.50;52.10;;;;;;5079864;28;20020;-69
2023/08/03 10:39:06;;;;;;;0.82;0.50;;;25.50;52.10;;;;;;5080315;28;20078;-70
2023/08/03 10:41:46;;;;;;;1.88;0.60;;;25.50;52.10;;;;;;5082710;28;20016;-70
2023/08/03 10:44:12;;;;;;;0.88;0.60;;;25.50;52.00;;;;;;5078346;28;20029;-70
2023/08/03 10:46:43;;;;;;;1.35;0.70;;;25.50;52.00;;;;;;5079774;28;20024;-70
2023/08/03 10:49:41;;;;;;;1.58;0.60;;;25.50;51.90;;;;;;5078346;28;20372;-69
2023/08/03 10:52:20;;;;;;;1.13;0.60;;;25.50;51.90;;;;;;5043301;28;20504;-69
2023/08/03 10:54:47;;;;;;;1.08;0.70;;;25.50;51.80;;;;;;5080143;28;20039;-69
2023/08/03 10:57:24;;;;;;;0.73;0.60;;;25.50;51.80;;;;;;5080520;28;20494;-70
2023/08/03 10:59:53;;;;;;;0.88;0.52;;;25.50;51.80;;;;;;5079617;28;20026;-71
2023/08/03 11:02:30;;;;;;;1.05;0.63;;;25.50;51.90;;;;;;5080253;28;20396;-72
2023/08/03 11:04:58;;;;;;;1.10;0.60;;;25.50;51.90;;;;;;5079363;28;20387;-70
2023/08/03 11:07:35;;;;;;;0.88;0.50;;;25.50;51.80;;;;;;5079629;28;20471;-69
2023/08/03 11:10:02;;;;;;;0.95;0.60;;;25.60;51.90;;;;;;5081452;28;20271;-69
2023/08/03 11:12:28;;;;;;;0.90;0.60;;;25.60;51.80;;;;;;5079251;28;20392;-68
2023/08/03 11:14:55;;;;;;;0.88;0.50;;;25.60;51.70;;;;;;5066805;28;20027;-69
2023/08/03 11:17:26;;;;;;;0.65;0.60;;;25.60;51.70;;;;;;5080047;28;20024;-64
2023/08/03 11:19:53;;;;;;;1.10;0.70;;;25.60;51.70;;;;;;5077709;28;20024;-64
2023/08/03 11:22:21;;;;;;;1.15;0.63;;;25.60;51.70;;;;;;5078382;28;20091;-64
2023/08/03 11:24:48;;;;;;;0.85;0.50;;;25.60;51.70;;;;;;5063748;28;20042;-63
2023/08/03 11:27:14;;;;;;;0.88;0.60;;;25.60;51.60;;;;;;5078982;28;20108;-70
2023/08/03 11:29:40;;;;;;;1.10;0.60;;;25.60;51.60;;;;;;5079242;28;20229;-69
2023/08/03 11:32:07;;;;;;;1.10;0.60;;;25.60;51.60;;;;;;5079550;28;20424;-69
2023/08/03 11:34:33;;;;;;;0.63;0.50;;;25.60;51.50;;;;;;5079007;28;20052;-70
2023/08/03 11:36:59;;;;;;;0.47;0.40;;;25.60;51.50;;;;;;5078238;28;20093;-63
2023/08/03 11:39:24;;;;;;;0.50;0.40;;;25.60;51.50;;;;;;5077410;28;20035;-64
2023/08/03 11:41:52;;;;;;;0.60;0.50;;;25.60;51.50;;;;;;5080864;28;20024;-64
2023/08/03 11:44:22;;;;;;;1.20;0.60;;;25.60;51.40;;;;;;5069544;28;20091;-64
2023/08/03 11:46:49;;;;;;;1.02;0.50;;;25.60;51.30;;;;;;5082148;28;20020;-64
2023/08/03 11:49:15;;;;;;;0.70;0.57;;;25.60;51.60;;;;;;5077758;28;20469;-64
2023/08/03 11:51:41;;;;;;;0.43;0.43;;;25.60;51.40;;;;;;5078861;28;20036;-65
2023/08/03 11:54:12;;;;;;;0.63;0.50;;;25.70;51.30;;;;;;5063458;28;20048;-65
2023/08/03 11:56:39;;;;;;;1.50;0.70;;;25.60;51.10;;;;;;5079279;28;20024;-64
2023/08/03 11:59:08;;;;;;;1.10;0.50;;;25.60;51.30;;;;;;5077892;28;20020;-64
2023/08/03 12:01:45;;;;;;;0.57;0.50;;;25.70;52.00;;;;;;5080296;28;20101;-64
2023/08/03 12:04:11;;;;;;;1.27;0.60;;;25.70;51.80;;;;;;5077373;28;20084;-65
2023/08/03 12:06:45;;;;;;;1.42;0.75;;;25.70;51.20;;;;;;5079096;28;20020;-66
2023/08/03 12:09:20;;;;;;;0.70;0.55;;;25.70;51.10;;;;;;5079772;28;20052;-65
2023/08/03 12:11:46;;;;;;;0.90;0.50;;;25.70;51.00;;;;;;5079253;28;20581;-65
2023/08/03 12:14:11;;;;;;;0.35;0.35;;;25.70;51.10;;;;;;5079226;28;20025;-65
2023/08/03 12:16:38;;;;;;;0.40;0.40;;;25.80;51.20;;;;;;5079581;28;20028;-65
2023/08/03 12:19:08;;;;;;;0.98;0.43;;;25.70;51.10;;;;;;5076580;28;20028;-65
2023/08/03 12:21:35;;;;;;;1.20;0.60;;;25.70;51.10;;;;;;5076484;28;20571;-66
2023/08/03 12:24:01;;;;;;;0.40;0.40;;;25.70;51.10;;;;;;5079706;28;20547;-66
2023/08/03 12:26:27;;;;;;;1.05;0.43;;;25.80;51.10;;;;;;5079154;28;20068;-67
2023/08/03 12:28:52;;;;;;;1.02;0.52;;;25.80;51.10;;;;;;5076382;28;20099;-65
2023/08/03 12:31:18;;;;;;;0.82;0.40;;;25.80;51.10;;;;;;5077478;28;20020;-66
2023/08/03 12:33:43;;;;;;;0.40;0.40;;;25.70;51.10;;;;;;5079597;28;20561;-65
2023/08/03 12:36:10;;;;;;;0.52;0.40;;;25.80;51.20;;;;;;5077736;28;20028;-66
2023/08/03 12:38:36;;;;;;;0.40;0.40;;;25.80;51.10;;;;;;5078869;28;20133;-66
2023/08/03 12:41:01;;;;;;;1.80;0.60;;;25.80;51.20;;;;;;5077680;28;20025;-66
2023/08/03 12:43:27;;;;;;;0.43;0.40;;;25.80;51.20;;;;;;5079502;28;20051;-65
2023/08/03 12:45:53;;;;;;;0.63;0.50;;;25.80;51.20;;;;;;5078410;28;20021;-65
2023/08/03 12:48:18;;;;;;;0.50;0.40;;;25.80;51.30;;;;;;5077901;28;20032;-65